createdAt,value
2023-02-18T00:01:21.238Z,11.67
2023-02-18T00:03:49.983Z,11.60
2023-02-18T00:06:20.637Z,11.63
2023-02-18T00:08:50.765Z,12.57
2023-02-18T00:11:22.047Z,11.77
2023-02-18T00:13:54.659Z,10.87
2023-02-18T00:16:24.249Z,11.10
2023-02-18T00:18:55.865Z,12.30
2023-02-18T00:21:25.189Z,11.67
2023-02-18T00:23:53.705Z,11.50
2023-02-18T00:26:23.757Z,12.00
2023-02-18T00:28:53.182Z,11.83
2023-02-18T00:31:24.765Z,12.17
2023-02-18T00:33:53.622Z,10.97
2023-02-18T00:36:23.489Z,11.43
2023-02-18T00:38:59.382Z,12.77
2023-02-18T00:41:30.791Z,12.07
2023-02-18T00:43:59.392Z,11.53
2023-02-18T00:46:28.845Z,12.10
2023-02-18T00:48:57.523Z,11.53
2023-02-18T00:51:26.704Z,10.97
2023-02-18T00:53:55.700Z,11.33
2023-02-18T00:56:24.459Z,10.93
2023-02-18T00:58:54.523Z,11.53
2023-02-18T01:01:24.442Z,11.17
2023-02-18T01:03:52.866Z,11.13
2023-02-18T01:06:22.174Z,10.33
2023-02-18T01:08:50.653Z,10.73
2023-02-18T01:11:19.100Z,10.87
2023-02-18T01:13:48.418Z,10.57
2023-02-18T01:16:18.317Z,10.40
2023-02-18T01:18:48.178Z,9.57
2023-02-18T01:21:17.144Z,10.53
2023-02-18T01:23:45.816Z,11.03
2023-02-18T01:26:17.490Z,10.10
2023-02-18T01:28:45.876Z,10.33
2023-02-18T01:31:15.336Z,10.17
2023-02-18T01:33:45.578Z,9.90
2023-02-18T01:36:14.562Z,10.13
2023-02-18T01:38:43.324Z,10.23
2023-02-18T01:41:12.291Z,10.37
2023-02-18T01:43:40.912Z,9.83
2023-02-18T01:46:17.487Z,10.43
2023-02-18T01:48:52.899Z,10.23
2023-02-18T01:51:27.500Z,9.70
2023-02-18T01:53:58.594Z,10.03
2023-02-18T01:56:30.601Z,9.83
2023-02-18T01:59:03.024Z,9.67
2023-02-18T02:01:33.697Z,9.43
2023-02-18T02:04:04.802Z,9.93
2023-02-18T02:06:33.589Z,10.17
2023-02-18T02:09:06.578Z,10.10
2023-02-18T02:11:53.584Z,9.73
2023-02-18T02:14:34.570Z,9.43
2023-02-18T02:17:09.524Z,9.43
2023-02-18T02:20:18.383Z,8.70
2023-02-18T02:23:12.941Z,9.30
2023-02-18T02:26:10.228Z,9.33
2023-02-18T02:29:05.047Z,9.50
2023-02-18T02:32:00.575Z,9.57
2023-02-18T02:34:44.743Z,9.43
2023-02-18T02:37:17.357Z,9.30
2023-02-18T02:40:03.194Z,9.17
2023-02-18T02:42:46.396Z,9.20
2023-02-18T02:45:25.185Z,9.23
2023-02-18T02:48:02.113Z,8.53
2023-02-18T02:50:40.037Z,9.00
2023-02-18T02:53:18.022Z,8.97
2023-02-18T03:00:36.814Z,8.93
2023-02-18T03:03:45.831Z,9.47
2023-02-18T03:06:59.517Z,9.43
2023-02-18T03:09:41.477Z,8.80
2023-02-18T03:12:18.460Z,8.90
2023-02-18T03:14:57.778Z,9.33
2023-02-18T03:17:31.713Z,8.80
2023-02-18T03:20:09.398Z,10.23
2023-02-18T03:22:45.300Z,9.60
2023-02-18T03:25:15.852Z,9.60
2023-02-18T03:27:48.301Z,8.80
2023-02-18T03:30:23.371Z,9.20
2023-02-18T03:32:56.895Z,9.70
2023-02-18T03:35:26.233Z,9.60
2023-02-18T03:38:01.157Z,9.17
2023-02-18T03:40:32.330Z,9.23
2023-02-18T03:43:03.219Z,8.77
2023-02-18T03:45:31.760Z,9.20
2023-02-18T03:48:00.189Z,9.33
2023-02-18T03:50:31.368Z,8.67
2023-02-18T03:53:01.230Z,8.47
2023-02-18T03:55:29.582Z,8.50
2023-02-18T03:57:57.942Z,8.27
2023-02-18T04:00:26.412Z,8.83
2023-02-18T04:02:54.728Z,9.40
2023-02-18T04:05:23.021Z,9.13
2023-02-18T04:07:51.446Z,8.43
2023-02-18T04:10:22.803Z,8.67
2023-02-18T04:12:51.210Z,8.27
2023-02-18T04:15:19.656Z,10.20
2023-02-18T04:17:48.090Z,8.43
2023-02-18T04:20:16.638Z,9.03
2023-02-18T04:22:45.015Z,8.60
2023-02-18T04:25:13.303Z,8.20
2023-02-18T04:27:43.048Z,8.67
2023-02-18T04:30:12.113Z,7.80
2023-02-18T04:32:40.647Z,7.97
2023-02-18T04:35:09.397Z,7.47
2023-02-18T04:37:37.742Z,8.00
2023-02-18T04:40:07.212Z,8.50
2023-02-18T04:42:36.629Z,8.77
2023-02-18T04:45:06.957Z,8.40
2023-02-18T04:47:35.356Z,8.20
2023-02-18T04:50:03.667Z,8.23
2023-02-18T04:52:32.074Z,8.97
2023-02-18T04:55:00.534Z,8.80
2023-02-18T04:57:28.963Z,7.43
2023-02-18T04:59:57.294Z,8.10
2023-02-18T05:02:28.030Z,8.50
2023-02-18T05:04:56.280Z,8.47
2023-02-18T05:07:24.629Z,7.73
2023-02-18T05:09:52.982Z,9.87
2023-02-18T05:12:21.321Z,8.70
2023-02-18T05:14:49.606Z,8.17
2023-02-18T05:17:17.906Z,8.67
2023-02-18T05:19:47.751Z,8.00
2023-02-18T05:22:16.134Z,9.03
2023-02-18T05:24:44.567Z,8.87
2023-02-18T05:27:12.908Z,8.30
2023-02-18T05:29:41.243Z,8.97
2023-02-18T05:32:09.588Z,8.47
2023-02-18T05:34:37.976Z,8.47
2023-02-18T05:37:07.709Z,7.67
2023-02-18T05:39:37.344Z,10.00
2023-02-18T05:42:06.876Z,8.70
2023-02-18T05:44:35.176Z,9.33
2023-02-18T05:47:06.044Z,9.93
2023-02-18T05:49:35.951Z,9.80
2023-02-18T05:52:05.394Z,9.27
2023-02-18T05:54:35.874Z,9.07
2023-02-18T05:57:04.978Z,10.40
2023-02-18T05:59:33.413Z,9.20
2023-02-18T06:02:01.817Z,9.53
2023-02-18T06:04:30.188Z,9.13
2023-02-18T06:06:58.613Z,8.80
2023-02-18T06:09:27.092Z,9.33
2023-02-18T06:11:56.810Z,8.90
2023-02-18T06:14:25.168Z,8.63
2023-02-18T06:16:53.568Z,8.33
2023-02-18T06:19:21.862Z,8.77
2023-02-18T06:21:50.256Z,8.70
2023-02-18T06:24:18.567Z,9.10
2023-02-18T06:26:47.111Z,10.47
2023-02-18T06:29:16.875Z,9.23
2023-02-18T06:31:48.343Z,8.03
2023-02-18T06:34:17.336Z,8.43
2023-02-18T06:36:45.638Z,8.13
2023-02-18T06:39:14.082Z,9.03
2023-02-18T06:41:42.663Z,8.60
2023-02-18T06:44:11.402Z,8.13
2023-02-18T06:46:41.145Z,10.17
2023-02-18T06:49:09.556Z,8.33
2023-02-18T06:51:37.872Z,8.70
2023-02-18T06:54:07.261Z,9.47
2023-02-18T06:56:35.547Z,9.67
2023-02-18T06:59:04.755Z,9.17
2023-02-18T07:01:33.191Z,9.77
2023-02-18T07:04:03.020Z,9.13
2023-02-18T07:06:31.373Z,8.23
2023-02-18T07:08:59.730Z,9.43
2023-02-18T07:11:28.186Z,10.83
2023-02-18T07:13:56.508Z,12.47
2023-02-18T07:16:24.854Z,10.13
2023-02-18T07:18:53.241Z,8.57
2023-02-18T07:21:22.911Z,8.73
2023-02-18T07:23:51.248Z,8.40
2023-02-18T07:26:19.549Z,8.83
2023-02-18T07:28:47.902Z,9.90
2023-02-18T07:31:16.361Z,9.93
2023-02-18T07:33:44.723Z,9.10
2023-02-18T07:36:13.023Z,9.50
2023-02-18T07:38:43.052Z,9.40
2023-02-18T07:41:18.317Z,8.90
2023-02-18T07:43:47.510Z,8.43
2023-02-18T07:46:15.964Z,9.53
2023-02-18T07:48:44.412Z,9.77
2023-02-18T07:51:13.834Z,9.70
2023-02-18T07:53:43.882Z,9.90
2023-02-18T07:56:12.434Z,10.00
2023-02-18T07:58:41.313Z,10.07
2023-02-18T08:01:11.718Z,13.30
2023-02-18T08:03:40.795Z,16.43
2023-02-18T08:06:10.527Z,17.73
2023-02-18T08:08:39.006Z,14.83
2023-02-18T08:11:18.447Z,13.20
2023-02-18T08:13:48.050Z,10.87
2023-02-18T08:16:16.599Z,10.57
2023-02-18T08:18:45.452Z,9.87
2023-02-18T08:21:13.691Z,9.57
2023-02-18T08:23:42.252Z,9.87
2023-02-18T08:26:12.565Z,8.47
2023-02-18T08:28:44.401Z,9.60
2023-02-18T08:31:19.210Z,9.93
2023-02-18T08:33:48.060Z,9.77
2023-02-18T08:36:16.518Z,9.80
2023-02-18T08:38:45.199Z,10.37
2023-02-18T08:41:15.823Z,9.83
2023-02-18T08:43:44.465Z,10.20
2023-02-18T08:46:16.022Z,9.90
2023-02-18T08:48:53.904Z,10.07
2023-02-18T08:51:23.878Z,10.03
2023-02-18T08:53:52.278Z,9.50
2023-02-18T08:56:22.034Z,8.70
2023-02-18T08:58:50.724Z,11.77
2023-02-18T09:01:19.123Z,9.20
2023-02-18T09:03:48.447Z,9.37
2023-02-18T09:06:16.996Z,10.93
2023-02-18T09:08:45.371Z,8.10
2023-02-18T09:11:14.070Z,8.90
2023-02-18T09:13:43.889Z,8.37
2023-02-18T09:16:14.458Z,8.53
2023-02-18T09:18:43.308Z,8.87
2023-02-18T09:21:14.222Z,7.37
2023-02-18T09:23:43.606Z,8.23
2023-02-18T09:26:15.681Z,9.47
2023-02-18T09:28:45.484Z,9.50
2023-02-18T09:31:17.192Z,9.63
2023-02-18T09:33:47.388Z,7.13
2023-02-18T09:36:16.094Z,8.33
2023-02-18T09:38:45.629Z,7.47
2023-02-18T09:41:24.230Z,8.10
2023-02-18T09:43:57.666Z,7.93
2023-02-18T09:46:29.888Z,8.50
2023-02-18T09:48:59.236Z,8.80
2023-02-18T09:51:27.623Z,9.33
2023-02-18T09:53:56.018Z,9.53
2023-02-18T09:56:29.322Z,9.70
2023-02-18T09:59:04.365Z,9.70
2023-02-18T10:01:37.637Z,9.13
2023-02-18T10:04:14.215Z,8.53
2023-02-18T10:06:42.903Z,8.87
2023-02-18T10:09:20.946Z,7.50
2023-02-18T10:11:53.284Z,7.37
2023-02-18T10:14:23.145Z,8.23
2023-02-18T10:16:53.876Z,6.37
2023-02-18T10:19:26.954Z,7.27
2023-02-18T10:21:57.205Z,7.40
2023-02-18T10:24:30.792Z,8.50
2023-02-18T10:27:00.792Z,7.43
2023-02-18T10:29:32.432Z,7.27
2023-02-18T10:32:08.917Z,7.60
2023-02-18T10:34:46.730Z,9.00
2023-02-18T10:37:44.783Z,9.03
2023-02-18T10:40:19.283Z,9.83
2023-02-18T10:42:58.793Z,9.47
2023-02-18T10:45:39.579Z,9.83
2023-02-18T10:48:22.530Z,9.63
2023-02-18T10:50:51.616Z,7.90
2023-02-18T10:53:31.881Z,6.77
2023-02-18T10:56:00.434Z,6.37
2023-02-18T10:58:33.000Z,6.70
2023-02-18T11:01:08.846Z,8.13
2023-02-18T11:03:42.686Z,7.60
2023-02-18T11:06:21.110Z,8.63
2023-02-18T11:08:50.751Z,10.13
2023-02-18T11:11:23.969Z,10.43
2023-02-18T11:13:55.116Z,9.80
2023-02-18T11:16:25.953Z,10.53
2023-02-18T11:18:54.791Z,9.93
2023-02-18T11:21:30.281Z,10.73
2023-02-18T11:24:06.918Z,10.73
2023-02-18T11:26:37.288Z,9.77
2023-02-18T11:29:09.785Z,8.47
2023-02-18T11:31:46.124Z,8.57
2023-02-18T11:34:19.705Z,8.37
2023-02-18T11:36:49.800Z,10.43
2023-02-18T11:39:22.728Z,10.37
2023-02-18T11:41:57.301Z,10.87
2023-02-18T11:44:33.161Z,11.53
2023-02-18T11:47:05.872Z,11.30
2023-02-18T11:49:36.125Z,11.47
2023-02-18T11:52:18.980Z,11.57
2023-02-18T11:55:01.840Z,10.43
2023-02-18T11:57:30.859Z,10.20
2023-02-18T12:00:00.438Z,10.57
2023-02-18T12:02:35.140Z,10.40
2023-02-18T12:05:06.991Z,9.30
2023-02-18T12:07:44.294Z,8.73
2023-02-18T12:10:16.679Z,8.10
2023-02-18T12:12:49.049Z,8.60
2023-02-18T12:15:23.530Z,8.70
2023-02-18T12:18:13.360Z,9.20
2023-02-18T12:21:12.841Z,8.70
2023-02-18T12:23:54.727Z,10.57
2023-02-18T12:26:28.006Z,11.20
2023-02-18T12:29:19.184Z,12.17
2023-02-18T12:32:07.489Z,11.73
2023-02-18T12:34:51.385Z,12.40
2023-02-18T12:37:45.865Z,12.47
2023-02-18T12:40:34.670Z,11.20
2023-02-18T12:43:13.955Z,12.57
2023-02-18T12:46:04.406Z,13.30
2023-02-18T12:48:58.503Z,12.10
2023-02-18T12:51:39.392Z,13.50
2023-02-18T12:54:23.773Z,13.60
2023-02-18T12:57:18.671Z,13.70
2023-02-18T13:00:14.436Z,14.07
2023-02-18T13:03:06.988Z,13.73
2023-02-18T13:05:46.004Z,12.67
2023-02-18T13:08:30.222Z,13.27
2023-02-18T13:11:10.682Z,12.60
2023-02-18T13:13:44.250Z,13.27
2023-02-18T13:16:15.525Z,13.30
2023-02-18T13:18:47.714Z,14.13
2023-02-18T13:21:17.921Z,12.03
2023-02-18T13:23:54.480Z,12.53
2023-02-18T13:26:23.402Z,11.27
2023-02-18T13:28:57.249Z,12.17
2023-02-18T13:31:40.682Z,12.67
2023-02-18T13:34:17.300Z,12.57
2023-02-18T13:36:55.178Z,12.03
2023-02-18T13:39:26.513Z,10.97
2023-02-18T13:42:23.404Z,12.67
2023-02-18T13:45:19.112Z,12.63
2023-02-18T13:47:49.759Z,12.03
2023-02-18T13:50:30.845Z,13.67
2023-02-18T13:53:15.144Z,12.90
2023-02-18T13:55:54.973Z,13.10
2023-02-18T13:58:27.355Z,15.10
2023-02-18T14:01:01.305Z,14.53
2023-02-18T14:03:52.453Z,13.87
2023-02-18T14:06:23.855Z,14.67
2023-02-18T14:09:00.057Z,13.57
2023-02-18T14:11:49.483Z,15.97
2023-02-18T14:14:34.956Z,14.70
2023-02-18T14:17:37.497Z,14.03
2023-02-18T14:20:39.092Z,13.00
2023-02-18T14:23:34.530Z,13.37
2023-02-18T14:26:09.559Z,13.37
2023-02-18T14:28:50.465Z,13.90
2023-02-18T14:31:35.260Z,11.67
2023-02-18T14:34:46.236Z,11.80
2023-02-18T14:37:38.472Z,12.20
2023-02-18T14:40:23.301Z,13.07
2023-02-18T14:43:03.494Z,14.77
2023-02-18T14:46:00.488Z,11.80
2023-02-18T14:48:43.998Z,10.73
2023-02-18T14:51:16.685Z,11.80
2023-02-18T14:53:46.648Z,11.67
2023-02-18T14:56:17.799Z,11.20
2023-02-18T14:58:48.749Z,11.50
2023-02-18T15:01:22.416Z,12.47
2023-02-18T15:03:51.828Z,14.07
2023-02-18T15:06:29.756Z,11.53
2023-02-18T15:08:58.197Z,11.90
2023-02-18T15:11:35.854Z,14.13
2023-02-18T15:14:10.932Z,12.47
2023-02-18T15:16:41.214Z,11.73
2023-02-18T15:19:15.279Z,11.27
2023-02-18T15:21:46.372Z,12.33
2023-02-18T15:24:25.803Z,11.50
2023-02-18T15:26:55.798Z,11.83
2023-02-18T15:29:26.374Z,12.97
2023-02-18T15:31:58.841Z,12.80
2023-02-18T15:34:37.804Z,13.50
2023-02-18T15:37:10.550Z,13.33
2023-02-18T15:39:40.816Z,12.93
2023-02-18T15:42:18.430Z,12.40
2023-02-18T15:44:49.967Z,12.57
2023-02-18T15:47:20.656Z,12.77
2023-02-18T15:49:54.127Z,12.80
2023-02-18T15:52:27.201Z,12.53
2023-02-18T15:54:56.422Z,12.50
2023-02-18T15:57:29.530Z,14.03
2023-02-18T16:00:05.649Z,12.67
2023-02-18T16:02:36.539Z,13.47
2023-02-18T16:05:14.643Z,14.03
2023-02-18T16:07:52.865Z,13.63
2023-02-18T16:10:24.426Z,14.03
2023-02-18T16:12:56.320Z,13.80
2023-02-18T16:15:28.283Z,13.53
2023-02-18T16:17:59.150Z,12.77
2023-02-18T16:20:32.053Z,13.50
2023-02-18T16:23:04.154Z,13.73
2023-02-18T16:25:44.670Z,14.17
2023-02-18T16:28:16.476Z,13.50
2023-02-18T16:30:46.576Z,15.17
2023-02-18T16:33:16.722Z,13.63
2023-02-18T16:35:50.845Z,15.93
2023-02-18T16:38:21.104Z,13.97
2023-02-18T16:40:49.890Z,12.70
2023-02-18T16:43:20.182Z,14.10
2023-02-18T16:45:51.431Z,13.77
2023-02-18T16:48:25.570Z,14.73
2023-02-18T16:50:54.911Z,14.50
2023-02-18T16:53:23.901Z,15.67
2023-02-18T16:55:52.424Z,16.50
2023-02-18T16:58:20.937Z,15.93
2023-02-18T17:00:52.961Z,18.17
2023-02-18T17:03:23.148Z,17.73
2023-02-18T17:05:51.537Z,17.90
2023-02-18T17:08:24.462Z,17.00
2023-02-18T17:10:55.450Z,17.60
2023-02-18T17:13:26.199Z,18.80
2023-02-18T17:15:56.133Z,17.83
2023-02-18T17:18:26.773Z,19.33
2023-02-18T17:20:57.187Z,18.70
2023-02-18T17:23:25.887Z,19.60
2023-02-18T17:25:54.808Z,20.13
2023-02-18T17:28:23.329Z,20.43
2023-02-18T17:30:57.493Z,20.90
2023-02-18T17:33:27.506Z,20.93
2023-02-18T17:35:55.884Z,21.87
2023-02-18T17:38:24.238Z,21.30
2023-02-18T17:40:52.558Z,20.50
2023-02-18T17:43:23.157Z,18.30
2023-02-18T17:45:54.284Z,17.67
2023-02-18T17:55:53.912Z,21.23
2023-02-18T17:58:23.812Z,20.27
2023-02-18T18:00:55.395Z,21.67
2023-02-18T18:03:24.703Z,25.23
2023-02-18T18:05:54.621Z,24.80
2023-02-18T18:08:23.227Z,26.20
2023-02-18T18:13:48.407Z,22.63
2023-02-18T18:16:18.972Z,22.17
2023-02-18T18:18:47.651Z,21.93
2023-02-18T18:21:22.241Z,20.13
2023-02-18T18:23:51.732Z,20.60
2023-02-18T18:26:20.393Z,19.60
2023-02-18T18:28:50.194Z,21.83
2023-02-18T18:31:28.973Z,26.97
2023-02-18T18:33:57.862Z,30.37
2023-02-18T18:36:26.332Z,33.53
2023-02-18T18:38:55.526Z,33.97
2023-02-18T18:41:24.149Z,31.47
2023-02-18T18:43:55.241Z,28.00
2023-02-18T18:46:23.707Z,28.60
2023-02-18T18:55:24.583Z,24.03
2023-02-18T18:57:54.748Z,24.93
2023-02-18T19:00:25.981Z,26.27
2023-02-18T19:02:54.396Z,26.77
2023-02-18T19:05:29.231Z,30.03
2023-02-18T19:07:58.438Z,32.43
2023-02-18T19:10:31.114Z,29.80
2023-02-18T19:13:04.015Z,30.83
2023-02-18T19:15:33.598Z,30.73
2023-02-18T19:18:02.404Z,30.57
2023-02-18T19:20:33.242Z,32.10
2023-02-18T19:23:01.695Z,32.93
2023-02-18T19:25:31.723Z,29.07
2023-02-18T19:28:00.298Z,29.37
2023-02-18T19:30:30.887Z,32.13
2023-02-18T19:33:00.922Z,30.63
2023-02-18T19:35:30.759Z,29.93
2023-02-18T19:38:00.014Z,30.53
2023-02-18T19:40:31.739Z,29.97
2023-02-18T19:43:00.210Z,29.07
2023-02-18T19:45:28.757Z,29.20
2023-02-18T19:47:58.775Z,29.37
2023-02-18T19:50:28.950Z,28.53
2023-02-18T19:52:58.893Z,29.70
2023-02-18T19:55:27.404Z,30.80
2023-02-18T19:57:57.236Z,28.90
2023-02-18T20:00:26.094Z,31.70
2023-02-18T20:02:54.529Z,31.77
2023-02-18T20:05:23.130Z,30.97
2023-02-18T20:07:51.491Z,30.13
2023-02-18T20:10:21.235Z,28.97
2023-02-18T20:12:54.154Z,27.53
2023-02-18T20:15:24.225Z,26.00
2023-02-18T20:17:52.617Z,25.67
2023-02-18T20:20:21.378Z,25.07
2023-02-18T20:22:49.802Z,24.23
2023-02-18T20:25:18.333Z,25.50
2023-02-18T20:27:59.806Z,26.00
2023-02-18T20:30:31.100Z,27.87
2023-02-18T20:32:59.689Z,25.40
2023-02-18T20:35:28.089Z,26.20
2023-02-18T20:37:56.442Z,27.97
2023-02-18T20:40:24.881Z,25.70
2023-02-18T20:42:53.304Z,25.03
2023-02-18T20:45:21.712Z,23.97
2023-02-18T20:47:51.719Z,24.83
2023-02-18T20:50:21.833Z,25.43
2023-02-18T20:52:51.634Z,22.70
2023-02-18T20:55:20.216Z,23.70
2023-02-18T20:57:48.675Z,23.63
2023-02-18T21:00:17.620Z,24.23
2023-02-18T21:02:46.143Z,24.57
2023-02-18T21:05:16.132Z,24.60
2023-02-18T21:07:44.567Z,24.07
2023-02-18T21:10:13.099Z,26.13
2023-02-18T21:12:41.517Z,24.93
2023-02-18T21:15:10.548Z,30.50
2023-02-18T21:17:40.195Z,25.00
2023-02-18T21:20:09.581Z,24.57
2023-02-18T21:22:39.629Z,23.47
2023-02-18T21:25:09.598Z,23.77
2023-02-18T21:27:40.060Z,25.23
2023-02-18T21:30:09.512Z,23.50
2023-02-18T21:32:37.948Z,24.13
2023-02-18T21:35:06.912Z,22.93
2023-02-18T21:37:35.950Z,23.43
2023-02-18T21:40:06.086Z,22.90
2023-02-18T21:42:34.778Z,22.77
2023-02-18T21:45:04.357Z,23.07
2023-02-18T21:47:32.730Z,22.63
2023-02-18T21:50:01.168Z,20.97
2023-02-18T21:52:29.870Z,21.53
2023-02-18T21:54:58.234Z,22.93
2023-02-18T21:57:28.127Z,21.47
2023-02-18T21:59:56.559Z,21.17
2023-02-18T22:02:26.855Z,21.43
2023-02-18T22:04:55.644Z,21.90
2023-02-18T22:07:28.601Z,21.80
2023-02-18T22:09:57.193Z,22.13
2023-02-18T22:12:27.641Z,23.27
2023-02-18T22:14:56.144Z,21.47
2023-02-18T22:17:24.556Z,22.07
2023-02-18T22:19:52.963Z,22.13
2023-02-18T22:22:21.375Z,20.60
2023-02-18T22:24:51.636Z,21.37
2023-02-18T22:27:20.731Z,21.17
2023-02-18T22:29:50.576Z,20.70
2023-02-18T22:32:19.043Z,21.07
2023-02-18T22:34:47.472Z,20.63
2023-02-18T22:37:15.846Z,20.77
2023-02-18T22:39:44.519Z,21.13
2023-02-18T22:42:12.900Z,19.90
2023-02-18T22:44:41.467Z,20.13
2023-02-18T22:47:11.203Z,20.67
2023-02-18T22:49:39.621Z,20.33
2023-02-18T22:52:08.056Z,19.57
2023-02-18T22:54:36.501Z,19.07
2023-02-18T22:57:05.010Z,19.50
2023-02-18T22:59:33.828Z,20.33
2023-02-18T23:02:02.294Z,19.10
2023-02-18T23:04:32.091Z,19.30
2023-02-18T23:07:00.538Z,20.27
2023-02-18T23:09:29.026Z,19.00
2023-02-18T23:11:59.677Z,18.90
2023-02-18T23:14:30.629Z,20.03
2023-02-18T23:17:18.067Z,20.00
2023-02-18T23:19:49.613Z,23.88
2023-02-18T23:22:20.049Z,20.03
2023-02-18T23:24:49.650Z,20.00
2023-02-18T23:27:18.554Z,18.77
2023-02-18T23:29:47.087Z,19.60
2023-02-18T23:32:15.528Z,21.10
2023-02-18T23:34:43.946Z,20.33
2023-02-18T23:37:13.844Z,20.23
2023-02-18T23:39:42.400Z,20.90
2023-02-18T23:42:10.811Z,19.80
2023-02-18T23:44:39.174Z,21.00
2023-02-18T23:47:08.534Z,21.00
2023-02-18T23:49:36.932Z,21.93
2023-02-18T23:52:05.418Z,20.47
2023-02-18T23:54:35.361Z,22.00
2023-02-18T23:57:03.723Z,19.87
2023-02-18T23:59:32.141Z,20.83
